sensor_id;sensor_type;location;lat;lon;timestamp;P1;durP1;ratioP1;P2;durP2;ratioP2
79137;SDS011;68544;45.566;10.238;2023-04-03T00:02:12;6.53;;;3.80;;
79137;SDS011;68544;45.566;10.238;2023-04-03T00:04:37;3.83;;;3.33;;
79137;SDS011;68544;45.566;10.238;2023-04-03T00:07:02;4.80;;;3.50;;
79137;SDS011;68544;45.566;10.238;2023-04-03T00:09:28;3.83;;;3.20;;
79137;SDS011;68544;45.566;10.238;2023-04-03T00:11:53;4.73;;;3.63;;
79137;SDS011;68544;45.566;10.238;2023-04-03T00:14:19;6.47;;;3.93;;
79137;SDS011;68544;45.566;10.238;2023-04-03T00:16:44;6.03;;;3.60;;
79137;SDS011;68544;45.566;10.238;2023-04-03T00:19:10;3.70;;;3.30;;
79137;SDS011;68544;45.566;10.238;2023-04-03T00:21:36;5.90;;;3.72;;
79137;SDS011;68544;45.566;10.238;2023-04-03T00:24:02;4.25;;;3.40;;
79137;SDS011;68544;45.566;10.238;2023-04-03T00:26:28;5.87;;;3.17;;
79137;SDS011;68544;45.566;10.238;2023-04-03T00:28:53;5.73;;;3.40;;
79137;SDS011;68544;45.566;10.238;2023-04-03T00:31:18;4.53;;;2.97;;
79137;SDS011;68544;45.566;10.238;2023-04-03T00:33:43;4.43;;;3.10;;
79137;SDS011;68544;45.566;10.238;2023-04-03T00:36:09;5.13;;;3.20;;
79137;SDS011;68544;45.566;10.238;2023-04-03T00:38:35;4.50;;;3.00;;
79137;SDS011;68544;45.566;10.238;2023-04-03T00:41:01;4.70;;;3.13;;
79137;SDS011;68544;45.566;10.238;2023-04-03T00:43:27;3.85;;;2.70;;
79137;SDS011;68544;45.566;10.238;2023-04-03T00:45:53;4.55;;;2.92;;
79137;SDS011;68544;45.566;10.238;2023-04-03T00:48:21;4.43;;;3.50;;
79137;SDS011;68544;45.566;10.238;2023-04-03T00:50:53;4.43;;;3.08;;
79137;SDS011;68544;45.566;10.238;2023-04-03T00:53:20;4.23;;;3.13;;
79137;SDS011;68544;45.566;10.238;2023-04-03T00:55:50;4.55;;;3.15;;
79137;SDS011;68544;45.566;10.238;2023-04-03T00:58:17;4.75;;;3.20;;
79137;SDS011;68544;45.566;10.238;2023-04-03T01:00:46;5.13;;;3.13;;
79137;SDS011;68544;45.566;10.238;2023-04-03T01:03:16;4.63;;;3.58;;
79137;SDS011;68544;45.566;10.238;2023-04-03T01:05:42;4.20;;;3.07;;
79137;SDS011;68544;45.566;10.238;2023-04-03T01:08:07;4.17;;;3.13;;
79137;SDS011;68544;45.566;10.238;2023-04-03T01:10:32;4.73;;;3.30;;
79137;SDS011;68544;45.566;10.238;2023-04-03T01:12:58;5.87;;;3.77;;
79137;SDS011;68544;45.566;10.238;2023-04-03T01:15:26;3.92;;;2.80;;
79137;SDS011;68544;45.566;10.238;2023-04-03T01:17:54;6.03;;;3.17;;
79137;SDS011;68544;45.566;10.238;2023-04-03T01:25:34;3.90;;;2.47;;
79137;SDS011;68544;45.566;10.238;2023-04-03T01:28:02;3.83;;;2.70;;
79137;SDS011;68544;45.566;10.238;2023-04-03T01:30:30;4.65;;;2.65;;
79137;SDS011;68544;45.566;10.238;2023-04-03T01:32:59;4.18;;;2.55;;
79137;SDS011;68544;45.566;10.238;2023-04-03T01:35:24;4.60;;;2.60;;
79137;SDS011;68544;45.566;10.238;2023-04-03T01:37:50;4.47;;;2.80;;
79137;SDS011;68544;45.566;10.238;2023-04-03T01:40:15;4.00;;;2.80;;
79137;SDS011;68544;45.566;10.238;2023-04-03T01:42:41;3.80;;;2.20;;
79137;SDS011;68544;45.566;10.238;2023-04-03T01:45:06;4.17;;;2.57;;
79137;SDS011;68544;45.566;10.238;2023-04-03T01:47:32;3.90;;;2.53;;
79137;SDS011;68544;45.566;10.238;2023-04-03T01:49:57;5.90;;;2.83;;
79137;SDS011;68544;45.566;10.238;2023-04-03T01:52:22;3.60;;;2.67;;
79137;SDS011;68544;45.566;10.238;2023-04-03T01:54:48;2.67;;;2.17;;
79137;SDS011;68544;45.566;10.238;2023-04-03T01:57:13;2.77;;;2.40;;
79137;SDS011;68544;45.566;10.238;2023-04-03T01:59:40;2.70;;;2.20;;
79137;SDS011;68544;45.566;10.238;2023-04-03T02:02:05;4.03;;;2.27;;
79137;SDS011;68544;45.566;10.238;2023-04-03T02:04:31;3.10;;;2.20;;
79137;SDS011;68544;45.566;10.238;2023-04-03T02:06:56;3.03;;;2.20;;
79137;SDS011;68544;45.566;10.238;2023-04-03T02:09:21;4.80;;;2.20;;
79137;SDS011;68544;45.566;10.238;2023-04-03T02:11:46;6.63;;;2.37;;
79137;SDS011;68544;45.566;10.238;2023-04-03T02:14:12;2.47;;;1.90;;
79137;SDS011;68544;45.566;10.238;2023-04-03T02:16:37;1.80;;;1.40;;
79137;SDS011;68544;45.566;10.238;2023-04-03T02:19:02;2.90;;;1.50;;
79137;SDS011;68544;45.566;10.238;2023-04-03T02:21:28;2.47;;;1.60;;
79137;SDS011;68544;45.566;10.238;2023-04-03T02:23:53;2.83;;;1.93;;
79137;SDS011;68544;45.566;10.238;2023-04-03T02:26:19;2.57;;;1.90;;
79137;SDS011;68544;45.566;10.238;2023-04-03T02:28:44;3.47;;;1.90;;
79137;SDS011;68544;45.566;10.238;2023-04-03T02:31:10;3.90;;;2.10;;
79137;SDS011;68544;45.566;10.238;2023-04-03T02:33:36;3.27;;;1.80;;
79137;SDS011;68544;45.566;10.238;2023-04-03T02:36:02;2.50;;;1.88;;
79137;SDS011;68544;45.566;10.238;2023-04-03T02:38:31;3.75;;;2.35;;
79137;SDS011;68544;45.566;10.238;2023-04-03T02:41:00;4.13;;;2.10;;
79137;SDS011;68544;45.566;10.238;2023-04-03T02:43:27;3.53;;;1.73;;
79137;SDS011;68544;45.566;10.238;2023-04-03T02:45:52;3.23;;;1.87;;
79137;SDS011;68544;45.566;10.238;2023-04-03T02:48:18;2.80;;;1.80;;
79137;SDS011;68544;45.566;10.238;2023-04-03T02:50:43;3.13;;;1.70;;
79137;SDS011;68544;45.566;10.238;2023-04-03T02:53:08;2.83;;;1.70;;
79137;SDS011;68544;45.566;10.238;2023-04-03T02:55:33;2.60;;;1.77;;
79137;SDS011;68544;45.566;10.238;2023-04-03T02:57:59;2.53;;;1.97;;
79137;SDS011;68544;45.566;10.238;2023-04-03T03:00:24;3.90;;;2.00;;
79137;SDS011;68544;45.566;10.238;2023-04-03T03:02:50;4.30;;;1.83;;
79137;SDS011;68544;45.566;10.238;2023-04-03T03:05:15;3.17;;;1.90;;
79137;SDS011;68544;45.566;10.238;2023-04-03T03:07:40;2.93;;;1.93;;
79137;SDS011;68544;45.566;10.238;2023-04-03T03:10:06;3.47;;;1.80;;
79137;SDS011;68544;45.566;10.238;2023-04-03T03:12:31;2.17;;;1.50;;
79137;SDS011;68544;45.566;10.238;2023-04-03T03:14:56;1.93;;;1.40;;
79137;SDS011;68544;45.566;10.238;2023-04-03T03:17:22;2.27;;;1.43;;
79137;SDS011;68544;45.566;10.238;2023-04-03T03:19:47;3.23;;;1.20;;
79137;SDS011;68544;45.566;10.238;2023-04-03T03:22:12;3.40;;;1.17;;
79137;SDS011;68544;45.566;10.238;2023-04-03T03:24:38;1.70;;;1.20;;
79137;SDS011;68544;45.566;10.238;2023-04-03T03:27:03;2.70;;;1.30;;
79137;SDS011;68544;45.566;10.238;2023-04-03T03:29:28;1.70;;;1.20;;
79137;SDS011;68544;45.566;10.238;2023-04-03T03:31:54;1.70;;;1.20;;
79137;SDS011;68544;45.566;10.238;2023-04-03T03:34:19;3.17;;;1.60;;
79137;SDS011;68544;45.566;10.238;2023-04-03T03:36:45;4.90;;;1.60;;
79137;SDS011;68544;45.566;10.238;2023-04-03T03:39:10;2.67;;;1.57;;
79137;SDS011;68544;45.566;10.238;2023-04-03T03:41:35;4.03;;;2.13;;
79137;SDS011;68544;45.566;10.238;2023-04-03T03:44:01;2.60;;;1.70;;
79137;SDS011;68544;45.566;10.238;2023-04-03T03:46:26;2.93;;;1.47;;
79137;SDS011;68544;45.566;10.238;2023-04-03T03:48:51;2.10;;;1.20;;
79137;SDS011;68544;45.566;10.238;2023-04-03T03:51:17;3.33;;;1.30;;
79137;SDS011;68544;45.566;10.238;2023-04-03T03:53:42;2.03;;;1.30;;
79137;SDS011;68544;45.566;10.238;2023-04-03T03:56:07;1.87;;;1.23;;
79137;SDS011;68544;45.566;10.238;2023-04-03T03:58:33;1.97;;;1.20;;
79137;SDS011;68544;45.566;10.238;2023-04-03T04:01:05;4.40;;;1.60;;
79137;SDS011;68544;45.566;10.238;2023-04-03T04:03:31;3.30;;;2.03;;
79137;SDS011;68544;45.566;10.238;2023-04-03T04:05:57;2.73;;;1.90;;
79137;SDS011;68544;45.566;10.238;2023-04-03T04:08:22;3.27;;;1.77;;
79137;SDS011;68544;45.566;10.238;2023-04-03T04:10:48;4.78;;;1.60;;
79137;SDS011;68544;45.566;10.238;2023-04-03T04:13:13;2.70;;;1.57;;
79137;SDS011;68544;45.566;10.238;2023-04-03T04:15:39;3.13;;;1.77;;
79137;SDS011;68544;45.566;10.238;2023-04-03T04:18:05;3.22;;;1.70;;
79137;SDS011;68544;45.566;10.238;2023-04-03T04:20:30;5.32;;;2.20;;
79137;SDS011;68544;45.566;10.238;2023-04-03T04:22:56;3.13;;;2.30;;
79137;SDS011;68544;45.566;10.238;2023-04-03T04:25:21;2.23;;;1.70;;
79137;SDS011;68544;45.566;10.238;2023-04-03T04:27:46;3.10;;;1.93;;
79137;SDS011;68544;45.566;10.238;2023-04-03T04:30:12;4.93;;;2.00;;
79137;SDS011;68544;45.566;10.238;2023-04-03T04:32:38;2.75;;;1.52;;
79137;SDS011;68544;45.566;10.238;2023-04-03T04:35:03;4.23;;;1.50;;
79137;SDS011;68544;45.566;10.238;2023-04-03T04:37:29;2.43;;;1.53;;
79137;SDS011;68544;45.566;10.238;2023-04-03T04:39:55;3.13;;;1.77;;
79137;SDS011;68544;45.566;10.238;2023-04-03T04:42:20;2.47;;;1.60;;
79137;SDS011;68544;45.566;10.238;2023-04-03T04:44:45;3.27;;;1.73;;
79137;SDS011;68544;45.566;10.238;2023-04-03T04:47:11;3.63;;;1.90;;
79137;SDS011;68544;45.566;10.238;2023-04-03T04:49:36;3.53;;;1.30;;
79137;SDS011;68544;45.566;10.238;2023-04-03T04:52:01;2.40;;;1.37;;
79137;SDS011;68544;45.566;10.238;2023-04-03T04:54:27;4.17;;;1.40;;
79137;SDS011;68544;45.566;10.238;2023-04-03T04:56:52;2.10;;;1.53;;
79137;SDS011;68544;45.566;10.238;2023-04-03T04:59:17;2.50;;;1.30;;
79137;SDS011;68544;45.566;10.238;2023-04-03T05:01:42;6.30;;;1.87;;
79137;SDS011;68544;45.566;10.238;2023-04-03T05:04:08;2.93;;;1.40;;
79137;SDS011;68544;45.566;10.238;2023-04-03T05:06:34;2.22;;;1.20;;
79137;SDS011;68544;45.566;10.238;2023-04-03T05:09:00;1.70;;;1.20;;
79137;SDS011;68544;45.566;10.238;2023-04-03T05:11:25;2.37;;;1.50;;
79137;SDS011;68544;45.566;10.238;2023-04-03T05:13:51;3.90;;;1.53;;
79137;SDS011;68544;45.566;10.238;2023-04-03T05:16:16;1.80;;;1.37;;
79137;SDS011;68544;45.566;10.238;2023-04-03T05:18:41;5.00;;;1.40;;
79137;SDS011;68544;45.566;10.238;2023-04-03T05:21:07;2.27;;;1.47;;
79137;SDS011;68544;45.566;10.238;2023-04-03T05:23:32;2.33;;;1.60;;
79137;SDS011;68544;45.566;10.238;2023-04-03T05:25:57;3.90;;;1.60;;
79137;SDS011;68544;45.566;10.238;2023-04-03T05:28:23;3.47;;;1.60;;
79137;SDS011;68544;45.566;10.238;2023-04-03T05:30:53;3.35;;;1.80;;
79137;SDS011;68544;45.566;10.238;2023-04-03T05:33:20;2.78;;;1.52;;
79137;SDS011;68544;45.566;10.238;2023-04-03T05:35:45;3.13;;;1.70;;
79137;SDS011;68544;45.566;10.238;2023-04-03T05:38:11;2.80;;;1.60;;
79137;SDS011;68544;45.566;10.238;2023-04-03T05:40:36;5.97;;;1.70;;
79137;SDS011;68544;45.566;10.238;2023-04-03T05:43:02;3.90;;;1.48;;
79137;SDS011;68544;45.566;10.238;2023-04-03T05:45:27;0.90;;;0.80;;
79137;SDS011;68544;45.566;10.238;2023-04-03T05:47:53;3.00;;;1.50;;
79137;SDS011;68544;45.566;10.238;2023-04-03T05:50:18;2.90;;;1.43;;
79137;SDS011;68544;45.566;10.238;2023-04-03T05:52:44;1.70;;;0.93;;
79137;SDS011;68544;45.566;10.238;2023-04-03T05:55:12;4.05;;;2.10;;
79137;SDS011;68544;45.566;10.238;2023-04-03T05:57:37;2.47;;;1.17;;
79137;SDS011;68544;45.566;10.238;2023-04-03T06:00:06;3.50;;;1.73;;
79137;SDS011;68544;45.566;10.238;2023-04-03T06:02:34;3.60;;;1.30;;
79137;SDS011;68544;45.566;10.238;2023-04-03T06:05:00;3.30;;;1.52;;
79137;SDS011;68544;45.566;10.238;2023-04-03T06:07:26;3.13;;;1.70;;
79137;SDS011;68544;45.566;10.238;2023-04-03T06:09:53;4.32;;;1.40;;
79137;SDS011;68544;45.566;10.238;2023-04-03T06:12:20;3.47;;;1.45;;
79137;SDS011;68544;45.566;10.238;2023-04-03T06:14:46;4.95;;;1.20;;
79137;SDS011;68544;45.566;10.238;2023-04-03T06:17:12;2.85;;;1.42;;
79137;SDS011;68544;45.566;10.238;2023-04-03T06:19:38;7.13;;;2.00;;
79137;SDS011;68544;45.566;10.238;2023-04-03T06:22:03;8.03;;;2.60;;
79137;SDS011;68544;45.566;10.238;2023-04-03T06:24:29;6.72;;;2.63;;
79137;SDS011;68544;45.566;10.238;2023-04-03T06:26:55;7.88;;;3.20;;
79137;SDS011;68544;45.566;10.238;2023-04-03T06:31:47;5.00;;;2.70;;
79137;SDS011;68544;45.566;10.238;2023-04-03T06:34:14;6.00;;;2.42;;
79137;SDS011;68544;45.566;10.238;2023-04-03T06:36:40;6.63;;;2.83;;
79137;SDS011;68544;45.566;10.238;2023-04-03T06:39:06;4.97;;;2.47;;
79137;SDS011;68544;45.566;10.238;2023-04-03T06:41:32;8.85;;;4.00;;
79137;SDS011;68544;45.566;10.238;2023-04-03T06:43:58;8.18;;;2.97;;
79137;SDS011;68544;45.566;10.238;2023-04-03T06:46:24;8.63;;;2.67;;
79137;SDS011;68544;45.566;10.238;2023-04-03T06:48:51;4.95;;;2.80;;
79137;SDS011;68544;45.566;10.238;2023-04-03T06:51:27;4.85;;;2.42;;
79137;SDS011;68544;45.566;10.238;2023-04-03T06:53:54;6.22;;;2.83;;
79137;SDS011;68544;45.566;10.238;2023-04-03T06:56:22;4.47;;;2.63;;
79137;SDS011;68544;45.566;10.238;2023-04-03T06:58:48;4.53;;;2.73;;
79137;SDS011;68544;45.566;10.238;2023-04-03T07:01:14;8.32;;;2.58;;
79137;SDS011;68544;45.566;10.238;2023-04-03T07:03:42;5.75;;;2.47;;
79137;SDS011;68544;45.566;10.238;2023-04-03T07:06:09;7.73;;;3.07;;
79137;SDS011;68544;45.566;10.238;2023-04-03T07:08:36;4.68;;;2.40;;
79137;SDS011;68544;45.566;10.238;2023-04-03T07:11:01;4.23;;;2.37;;
79137;SDS011;68544;45.566;10.238;2023-04-03T07:13:27;6.50;;;2.45;;
79137;SDS011;68544;45.566;10.238;2023-04-03T07:15:53;4.70;;;2.83;;
79137;SDS011;68544;45.566;10.238;2023-04-03T07:18:19;7.75;;;2.88;;
79137;SDS011;68544;45.566;10.238;2023-04-03T07:20:44;6.03;;;2.50;;
79137;SDS011;68544;45.566;10.238;2023-04-03T07:23:10;4.40;;;2.40;;
79137;SDS011;68544;45.566;10.238;2023-04-03T07:25:36;4.10;;;2.40;;
79137;SDS011;68544;45.566;10.238;2023-04-03T07:28:02;5.65;;;2.00;;
79137;SDS011;68544;45.566;10.238;2023-04-03T07:30:28;4.18;;;2.63;;
79137;SDS011;68544;45.566;10.238;2023-04-03T07:32:53;4.40;;;2.07;;
79137;SDS011;68544;45.566;10.238;2023-04-03T07:35:19;4.33;;;2.00;;
79137;SDS011;68544;45.566;10.238;2023-04-03T07:37:44;4.37;;;1.63;;
79137;SDS011;68544;45.566;10.238;2023-04-03T07:40:10;2.63;;;1.33;;
79137;SDS011;68544;45.566;10.238;2023-04-03T07:42:35;3.42;;;1.40;;
79137;SDS011;68544;45.566;10.238;2023-04-03T07:45:02;3.85;;;0.80;;
79137;SDS011;68544;45.566;10.238;2023-04-03T07:47:28;3.63;;;1.00;;
79137;SDS011;68544;45.566;10.238;2023-04-03T07:49:54;1.90;;;0.77;;
79137;SDS011;68544;45.566;10.238;2023-04-03T07:52:19;3.10;;;0.80;;
79137;SDS011;68544;45.566;10.238;2023-04-03T07:54:44;6.50;;;1.00;;
79137;SDS011;68544;45.566;10.238;2023-04-03T07:57:10;1.53;;;0.60;;
79137;SDS011;68544;45.566;10.238;2023-04-03T07:59:35;6.50;;;1.00;;
79137;SDS011;68544;45.566;10.238;2023-04-03T08:02:00;3.00;;;0.83;;
79137;SDS011;68544;45.566;10.238;2023-04-03T08:04:26;5.25;;;0.90;;
79137;SDS011;68544;45.566;10.238;2023-04-03T08:06:52;2.77;;;0.70;;
79137;SDS011;68544;45.566;10.238;2023-04-03T08:09:17;2.10;;;0.73;;
79137;SDS011;68544;45.566;10.238;2023-04-03T08:11:44;3.17;;;0.98;;
79137;SDS011;68544;45.566;10.238;2023-04-03T08:16:41;3.80;;;0.80;;
79137;SDS011;68544;45.566;10.238;2023-04-03T08:19:07;2.22;;;0.85;;
79137;SDS011;68544;45.566;10.238;2023-04-03T08:21:33;2.37;;;0.93;;
79137;SDS011;68544;45.566;10.238;2023-04-03T08:23:58;1.92;;;0.95;;
79137;SDS011;68544;45.566;10.238;2023-04-03T08:26:23;7.50;;;1.20;;
79137;SDS011;68544;45.566;10.238;2023-04-03T08:28:49;6.13;;;2.03;;
79137;SDS011;68544;45.566;10.238;2023-04-03T08:31:15;3.85;;;1.40;;
79137;SDS011;68544;45.566;10.238;2023-04-03T08:33:43;2.53;;;1.52;;
79137;SDS011;68544;45.566;10.238;2023-04-03T08:36:16;2.38;;;1.40;;
79137;SDS011;68544;45.566;10.238;2023-04-03T08:38:43;3.50;;;2.00;;
79137;SDS011;68544;45.566;10.238;2023-04-03T08:46:40;7.88;;;2.70;;
79137;SDS011;68544;45.566;10.238;2023-04-03T08:49:22;4.30;;;2.20;;
79137;SDS011;68544;45.566;10.238;2023-04-03T08:51:56;3.58;;;2.22;;
79137;SDS011;68544;45.566;10.238;2023-04-03T08:54:26;4.35;;;2.47;;
79137;SDS011;68544;45.566;10.238;2023-04-03T08:56:56;4.00;;;2.38;;
79137;SDS011;68544;45.566;10.238;2023-04-03T08:59:25;6.97;;;2.45;;
79137;SDS011;68544;45.566;10.238;2023-04-03T09:01:54;2.53;;;2.00;;
79137;SDS011;68544;45.566;10.238;2023-04-03T09:04:21;4.60;;;1.60;;
79137;SDS011;68544;45.566;10.238;2023-04-03T09:12:03;6.60;;;1.70;;
79137;SDS011;68544;45.566;10.238;2023-04-03T09:22:45;5.57;;;1.55;;
79137;SDS011;68544;45.566;10.238;2023-04-03T09:27:36;9.80;;;1.90;;
79137;SDS011;68544;45.566;10.238;2023-04-03T09:30:02;4.45;;;1.70;;
79137;SDS011;68544;45.566;10.238;2023-04-03T09:32:29;3.38;;;1.80;;
79137;SDS011;68544;45.566;10.238;2023-04-03T09:34:56;3.42;;;1.88;;
79137;SDS011;68544;45.566;10.238;2023-04-03T09:37:37;3.83;;;1.92;;
79137;SDS011;68544;45.566;10.238;2023-04-03T09:40:10;4.35;;;2.20;;
79137;SDS011;68544;45.566;10.238;2023-04-03T09:42:51;4.57;;;2.00;;
79137;SDS011;68544;45.566;10.238;2023-04-03T09:45:36;3.78;;;2.00;;
79137;SDS011;68544;45.566;10.238;2023-04-03T09:50:53;3.47;;;2.20;;
79137;SDS011;68544;45.566;10.238;2023-04-03T09:58:40;5.60;;;2.08;;
79137;SDS011;68544;45.566;10.238;2023-04-03T10:01:21;2.67;;;1.75;;
79137;SDS011;68544;45.566;10.238;2023-04-03T10:04:06;4.07;;;2.00;;
79137;SDS011;68544;45.566;10.238;2023-04-03T10:06:33;2.90;;;1.85;;
79137;SDS011;68544;45.566;10.238;2023-04-03T10:09:04;3.38;;;2.17;;
79137;SDS011;68544;45.566;10.238;2023-04-03T10:11:31;3.70;;;1.70;;
79137;SDS011;68544;45.566;10.238;2023-04-03T10:13:57;4.10;;;1.65;;
79137;SDS011;68544;45.566;10.238;2023-04-03T10:16:29;4.65;;;2.28;;
79137;SDS011;68544;45.566;10.238;2023-04-03T10:19:09;3.55;;;2.13;;
79137;SDS011;68544;45.566;10.238;2023-04-03T10:21:57;4.88;;;1.98;;
79137;SDS011;68544;45.566;10.238;2023-04-03T10:27:22;3.33;;;1.83;;
79137;SDS011;68544;45.566;10.238;2023-04-03T10:35:02;5.18;;;1.90;;
79137;SDS011;68544;45.566;10.238;2023-04-03T10:40:24;3.50;;;1.90;;
79137;SDS011;68544;45.566;10.238;2023-04-03T10:45:31;2.93;;;1.77;;
79137;SDS011;68544;45.566;10.238;2023-04-03T10:51:15;2.50;;;1.70;;
79137;SDS011;68544;45.566;10.238;2023-04-03T10:56:31;3.58;;;1.70;;
79137;SDS011;68544;45.566;10.238;2023-04-03T10:59:44;3.35;;;2.00;;
79137;SDS011;68544;45.566;10.238;2023-04-03T11:01:51;3.15;;;1.92;;
79137;SDS011;68544;45.566;10.238;2023-04-03T11:04:20;2.22;;;1.73;;
79137;SDS011;68544;45.566;10.238;2023-04-03T11:06:53;2.95;;;1.77;;
79137;SDS011;68544;45.566;10.238;2023-04-03T11:09:30;2.83;;;1.70;;
79137;SDS011;68544;45.566;10.238;2023-04-03T11:12:48;3.05;;;1.60;;
79137;SDS011;68544;45.566;10.238;2023-04-03T11:15:17;2.40;;;1.70;;
79137;SDS011;68544;45.566;10.238;2023-04-03T11:17:50;4.70;;;1.65;;
79137;SDS011;68544;45.566;10.238;2023-04-03T11:20:31;3.03;;;1.60;;
79137;SDS011;68544;45.566;10.238;2023-04-03T11:26:07;2.92;;;1.80;;
79137;SDS011;68544;45.566;10.238;2023-04-03T11:28:36;4.05;;;1.80;;
79137;SDS011;68544;45.566;10.238;2023-04-03T11:36:37;5.72;;;1.90;;
79137;SDS011;68544;45.566;10.238;2023-04-03T11:39:10;4.22;;;2.30;;
79137;SDS011;68544;45.566;10.238;2023-04-03T11:41:46;4.07;;;2.20;;
79137;SDS011;68544;45.566;10.238;2023-04-03T11:47:02;2.95;;;1.90;;
79137;SDS011;68544;45.566;10.238;2023-04-03T11:52:39;3.67;;;2.05;;
79137;SDS011;68544;45.566;10.238;2023-04-03T11:55:34;4.60;;;2.53;;
79137;SDS011;68544;45.566;10.238;2023-04-03T12:03:56;5.35;;;2.10;;
79137;SDS011;68544;45.566;10.238;2023-04-03T12:16:05;5.43;;;1.90;;
79137;SDS011;68544;45.566;10.238;2023-04-03T12:21:24;3.60;;;2.10;;
79137;SDS011;68544;45.566;10.238;2023-04-03T12:29:25;3.30;;;2.10;;
79137;SDS011;68544;45.566;10.238;2023-04-03T12:34:29;8.05;;;2.17;;
79137;SDS011;68544;45.566;10.238;2023-04-03T12:46:18;4.20;;;2.05;;
79137;SDS011;68544;45.566;10.238;2023-04-03T12:51:55;6.30;;;2.10;;
79137;SDS011;68544;45.566;10.238;2023-04-03T12:54:12;5.80;;;2.30;;
79137;SDS011;68544;45.566;10.238;2023-04-03T12:56:44;6.07;;;2.28;;
79137;SDS011;68544;45.566;10.238;2023-04-03T13:01:38;4.28;;;2.30;;
79137;SDS011;68544;45.566;10.238;2023-04-03T13:06:42;3.97;;;2.67;;
79137;SDS011;68544;45.566;10.238;2023-04-03T13:09:25;4.85;;;2.00;;
79137;SDS011;68544;45.566;10.238;2023-04-03T13:12:03;5.18;;;2.30;;
79137;SDS011;68544;45.566;10.238;2023-04-03T13:14:36;4.85;;;2.28;;
79137;SDS011;68544;45.566;10.238;2023-04-03T13:17:14;4.57;;;2.33;;
79137;SDS011;68544;45.566;10.238;2023-04-03T13:19:41;8.60;;;2.08;;
79137;SDS011;68544;45.566;10.238;2023-04-03T13:22:11;8.23;;;3.00;;
79137;SDS011;68544;45.566;10.238;2023-04-03T13:25:04;5.65;;;2.65;;
79137;SDS011;68544;45.566;10.238;2023-04-03T13:27:32;7.30;;;2.72;;
79137;SDS011;68544;45.566;10.238;2023-04-03T13:29:59;5.72;;;2.65;;
79137;SDS011;68544;45.566;10.238;2023-04-03T13:32:28;8.18;;;2.63;;
79137;SDS011;68544;45.566;10.238;2023-04-03T13:34:55;6.50;;;2.15;;
79137;SDS011;68544;45.566;10.238;2023-04-03T13:37:31;4.18;;;2.63;;
79137;SDS011;68544;45.566;10.238;2023-04-03T13:40:08;9.50;;;3.17;;
79137;SDS011;68544;45.566;10.238;2023-04-03T13:42:40;4.43;;;2.72;;
79137;SDS011;68544;45.566;10.238;2023-04-03T13:47:41;7.35;;;2.80;;
79137;SDS011;68544;45.566;10.238;2023-04-03T13:52:40;8.23;;;2.92;;
79137;SDS011;68544;45.566;10.238;2023-04-03T14:03:22;5.93;;;2.92;;
79137;SDS011;68544;45.566;10.238;2023-04-03T14:06:12;6.03;;;3.15;;
79137;SDS011;68544;45.566;10.238;2023-04-03T14:08:40;6.82;;;3.03;;
79137;SDS011;68544;45.566;10.238;2023-04-03T14:13:36;10.60;;;5.10;;
79137;SDS011;68544;45.566;10.238;2023-04-03T14:16:02;9.43;;;3.47;;
79137;SDS011;68544;45.566;10.238;2023-04-03T14:18:28;8.23;;;3.92;;
79137;SDS011;68544;45.566;10.238;2023-04-03T14:20:53;6.28;;;2.83;;
79137;SDS011;68544;45.566;10.238;2023-04-03T14:23:18;7.90;;;3.30;;
79137;SDS011;68544;45.566;10.238;2023-04-03T14:25:44;9.48;;;4.00;;
79137;SDS011;68544;45.566;10.238;2023-04-03T14:28:14;5.80;;;3.63;;
79137;SDS011;68544;45.566;10.238;2023-04-03T14:30:41;6.93;;;3.90;;
79137;SDS011;68544;45.566;10.238;2023-04-03T14:33:09;6.70;;;3.77;;
79137;SDS011;68544;45.566;10.238;2023-04-03T14:35:38;7.18;;;3.28;;
79137;SDS011;68544;45.566;10.238;2023-04-03T14:38:05;9.20;;;3.87;;
79137;SDS011;68544;45.566;10.238;2023-04-03T14:40:45;7.68;;;3.50;;
79137;SDS011;68544;45.566;10.238;2023-04-03T14:43:11;8.77;;;3.33;;
79137;SDS011;68544;45.566;10.238;2023-04-03T14:45:38;12.25;;;3.55;;
79137;SDS011;68544;45.566;10.238;2023-04-03T14:50:30;8.15;;;3.45;;
79137;SDS011;68544;45.566;10.238;2023-04-03T14:52:56;7.68;;;4.00;;
79137;SDS011;68544;45.566;10.238;2023-04-03T14:55:24;7.50;;;3.55;;
79137;SDS011;68544;45.566;10.238;2023-04-03T14:57:50;5.90;;;3.55;;
79137;SDS011;68544;45.566;10.238;2023-04-03T15:00:17;5.88;;;3.17;;
79137;SDS011;68544;45.566;10.238;2023-04-03T15:02:43;10.50;;;3.95;;
79137;SDS011;68544;45.566;10.238;2023-04-03T15:05:09;9.40;;;3.63;;
79137;SDS011;68544;45.566;10.238;2023-04-03T15:10:09;7.60;;;3.40;;
79137;SDS011;68544;45.566;10.238;2023-04-03T15:12:41;8.70;;;3.25;;
79137;SDS011;68544;45.566;10.238;2023-04-03T15:17:32;8.52;;;3.40;;
79137;SDS011;68544;45.566;10.238;2023-04-03T15:19:59;7.90;;;3.25;;
79137;SDS011;68544;45.566;10.238;2023-04-03T15:22:24;7.88;;;2.92;;
79137;SDS011;68544;45.566;10.238;2023-04-03T15:24:50;6.93;;;3.57;;
79137;SDS011;68544;45.566;10.238;2023-04-03T15:27:15;8.30;;;3.13;;
79137;SDS011;68544;45.566;10.238;2023-04-03T15:29:41;8.57;;;3.20;;
79137;SDS011;68544;45.566;10.238;2023-04-03T15:32:07;9.50;;;3.22;;
79137;SDS011;68544;45.566;10.238;2023-04-03T15:36:59;6.47;;;3.83;;
79137;SDS011;68544;45.566;10.238;2023-04-03T15:39:25;5.82;;;2.80;;
79137;SDS011;68544;45.566;10.238;2023-04-03T15:41:51;7.60;;;3.35;;
79137;SDS011;68544;45.566;10.238;2023-04-03T15:44:19;6.28;;;2.90;;
79137;SDS011;68544;45.566;10.238;2023-04-03T15:46:46;7.38;;;3.08;;
79137;SDS011;68544;45.566;10.238;2023-04-03T15:49:13;5.07;;;2.78;;
79137;SDS011;68544;45.566;10.238;2023-04-03T15:51:39;7.30;;;3.58;;
79137;SDS011;68544;45.566;10.238;2023-04-03T15:54:05;7.22;;;3.05;;
79137;SDS011;68544;45.566;10.238;2023-04-03T15:56:31;6.43;;;3.17;;
79137;SDS011;68544;45.566;10.238;2023-04-03T15:58:56;5.40;;;3.07;;
79137;SDS011;68544;45.566;10.238;2023-04-03T16:01:21;5.63;;;2.70;;
79137;SDS011;68544;45.566;10.238;2023-04-03T16:03:47;10.47;;;2.93;;
79137;SDS011;68544;45.566;10.238;2023-04-03T16:06:13;9.65;;;3.13;;
79137;SDS011;68544;45.566;10.238;2023-04-03T16:08:40;7.07;;;2.97;;
79137;SDS011;68544;45.566;10.238;2023-04-03T16:11:05;6.35;;;2.72;;
79137;SDS011;68544;45.566;10.238;2023-04-03T16:13:31;9.13;;;2.77;;
79137;SDS011;68544;45.566;10.238;2023-04-03T16:15:57;7.68;;;3.20;;
79137;SDS011;68544;45.566;10.238;2023-04-03T16:18:23;6.90;;;3.40;;
79137;SDS011;68544;45.566;10.238;2023-04-03T16:20:48;5.83;;;3.10;;
79137;SDS011;68544;45.566;10.238;2023-04-03T16:23:13;6.53;;;2.83;;
79137;SDS011;68544;45.566;10.238;2023-04-03T16:25:39;6.97;;;2.75;;
79137;SDS011;68544;45.566;10.238;2023-04-03T16:28:05;7.93;;;2.80;;
79137;SDS011;68544;45.566;10.238;2023-04-03T16:30:31;6.22;;;2.70;;
79137;SDS011;68544;45.566;10.238;2023-04-03T16:32:56;7.67;;;3.23;;
79137;SDS011;68544;45.566;10.238;2023-04-03T16:35:22;10.37;;;3.03;;
79137;SDS011;68544;45.566;10.238;2023-04-03T16:37:47;6.93;;;2.90;;
79137;SDS011;68544;45.566;10.238;2023-04-03T16:40:13;10.53;;;3.60;;
79137;SDS011;68544;45.566;10.238;2023-04-03T16:42:38;6.37;;;3.03;;
79137;SDS011;68544;45.566;10.238;2023-04-03T16:45:04;8.35;;;3.05;;
79137;SDS011;68544;45.566;10.238;2023-04-03T16:47:30;6.28;;;3.22;;
79137;SDS011;68544;45.566;10.238;2023-04-03T16:49:56;5.82;;;2.83;;
79137;SDS011;68544;45.566;10.238;2023-04-03T16:52:21;4.77;;;2.53;;
79137;SDS011;68544;45.566;10.238;2023-04-03T16:54:47;8.40;;;3.03;;
79137;SDS011;68544;45.566;10.238;2023-04-03T16:57:12;11.43;;;3.13;;
79137;SDS011;68544;45.566;10.238;2023-04-03T16:59:37;8.03;;;3.27;;